Time,TemperatureF,DewpointF,PressureIn,WindDirection,WindDirectionDegrees,WindSpeedMPH,WindSpeedGustMPH,Humidity,HourlyPrecipIn,Conditions,Clouds,dailyrainin,SoftwareType,DateUTC
2013-04-24 00:30:00,53.9,46.9,30.00,ESE,115,0.0,0.0,77,0.00,,---,0.00,VWS V12.07,2013-04-24 04:30:00,
2013-04-24 01:00:00,53.3,47.3,30.01,ESE,115,0.0,2.0,80,0.00,,---,0.00,VWS V12.07,2013-04-24 05:00:00,
2013-04-24 01:30:00,52.3,47.3,30.01,ESE,115,0.0,0.0,83,0.00,,---,0.00,VWS V12.07,2013-04-24 05:30:00,
2013-04-24 02:00:00,50.8,45.5,30.02,ESE,115,0.0,0.0,82,0.00,,---,0.00,VWS V12.07,2013-04-24 06:00:00,
2013-04-24 02:30:00,51.1,47.1,30.01,ESE,115,0.0,0.0,86,0.00,,---,0.00,VWS V12.07,2013-04-24 06:30:00,
2013-04-24 03:00:00,49.9,46.2,30.00,ESE,115,0.0,0.0,87,0.00,,---,0.00,VWS V12.07,2013-04-24 07:00:00,
2013-04-24 03:30:00,51.1,47.7,30.00,ESE,115,0.0,2.0,88,0.00,,---,0.00,VWS V12.07,2013-04-24 07:30:00,
2013-04-24 04:00:00,51.0,47.0,29.99,ESE,115,0.0,0.0,86,0.00,,---,0.00,VWS V12.07,2013-04-24 08:00:00,
2013-04-24 04:30:00,51.0,47.6,29.98,ESE,115,0.0,0.0,88,0.00,,---,0.00,VWS V12.07,2013-04-24 08:30:00,
2013-04-24 05:00:00,51.9,48.8,29.98,ESE,115,0.0,0.0,89,0.00,,---,0.00,VWS V12.07,2013-04-24 09:00:00,
2013-04-24 05:30:00,54.1,50.9,29.97,ESE,115,0.0,0.0,89,0.00,,---,0.00,VWS V12.07,2013-04-24 09:30:00,
2013-04-24 06:00:00,55.1,51.3,29.98,ESE,115,0.0,0.0,87,0.00,,---,0.00,VWS V12.07,2013-04-24 10:00:00,
2013-04-24 06:30:00,53.8,49.4,29.98,ESE,115,0.0,0.0,85,0.00,,---,0.00,VWS V12.07,2013-04-24 10:30:00,
2013-04-24 07:00:00,52.8,49.7,29.98,ESE,115,0.0,1.0,89,0.00,,---,0.00,VWS V12.07,2013-04-24 11:00:00,
2013-04-24 07:30:00,54.2,50.4,29.98,SSE,162,0.0,1.0,87,0.00,,---,0.00,VWS V12.07,2013-04-24 11:30:00,
2013-04-24 08:00:00,55.7,50.6,29.98,SSE,151,0.0,0.0,83,0.00,,---,0.00,VWS V12.07,2013-04-24 12:00:00,
2013-04-24 08:30:00,59.3,50.3,29.99,SSE,148,6.0,7.0,72,0.00,,---,0.00,VWS V12.07,2013-04-24 12:30:00,
2013-04-24 09:00:00,61.6,50.5,29.97,ESE,103,0.0,6.0,67,0.00,,---,0.00,VWS V12.07,2013-04-24 13:00:00,
2013-04-24 09:30:00,62.4,50.9,29.97,South,180,8.0,11.0,66,0.00,,---,0.00,VWS V12.07,2013-04-24 13:30:00,
2013-04-24 10:00:00,63.9,50.6,29.97,SSE,151,4.0,13.0,62,0.00,,---,0.00,VWS V12.07,2013-04-24 14:00:00,
2013-04-24 10:30:00,65.6,51.4,29.97,South,178,3.0,11.0,60,0.00,,---,0.00,VWS V12.07,2013-04-24 14:30:00,
2013-04-24 11:00:00,64.0,52.0,30.00,SSE,161,2.0,5.0,65,0.00,,---,0.00,VWS V12.07,2013-04-24 15:00:00,
2013-04-24 11:30:00,64.0,52.0,30.01,SE,129,1.0,6.0,65,0.00,,---,0.00,VWS V12.07,2013-04-24 15:30:00,
2013-04-24 12:00:00,67.3,53.0,29.99,East,92,0.0,4.0,60,0.00,,---,0.00,VWS V12.07,2013-04-24 16:00:00,
2013-04-24 12:30:00,67.8,53.9,29.98,South,172,2.0,8.0,61,0.00,,---,0.00,VWS V12.07,2013-04-24 16:30:00,
2013-04-24 13:00:00,68.6,53.7,29.97,SE,134,7.0,9.0,59,0.00,,---,0.00,VWS V12.07,2013-04-24 17:00:00,
2013-04-24 13:30:00,68.6,53.2,29.98,SSE,154,3.0,10.0,58,0.00,,---,0.00,VWS V12.07,2013-04-24 17:30:00,
2013-04-24 14:00:00,69.4,54.0,29.97,East,96,2.0,4.0,58,0.00,,---,0.00,VWS V12.07,2013-04-24 18:00:00,
2013-04-24 14:30:00,67.4,53.9,29.97,SE,130,0.0,9.0,62,0.00,,---,0.00,VWS V12.07,2013-04-24 18:30:00,
2013-04-24 15:00:00,66.0,53.9,29.97,SE,137,0.0,4.0,65,0.00,,---,0.00,VWS V12.07,2013-04-24 19:00:00,
2013-04-24 15:30:00,62.6,57.7,30.00,SSE,149,0.0,5.0,84,0.02,,---,0.02,VWS V12.07,2013-04-24 19:30:00,
2013-04-24 16:00:00,61.0,58.7,29.99,SSE,149,0.0,0.0,92,0.05,,---,0.05,VWS V12.07,2013-04-24 20:00:00,
2013-04-24 16:30:00,60.7,59.0,29.99,WSW,238,0.0,4.0,94,0.05,,---,0.09,VWS V12.07,2013-04-24 20:30:00,
2013-04-24 17:00:00,61.3,60.4,29.98,WSW,238,0.0,0.0,97,0.06,,---,0.11,VWS V12.07,2013-04-24 21:00:00,
2013-04-24 17:30:00,60.7,59.3,29.98,South,169,0.0,2.0,95,0.04,,---,0.11,VWS V12.07,2013-04-24 21:30:00,
2013-04-24 18:00:00,60.5,59.4,29.98,East,96,1.0,1.0,96,0.00,,---,0.11,VWS V12.07,2013-04-24 22:00:00,
2013-04-24 18:30:00,60.2,59.1,29.99,ESE,113,2.0,2.0,96,0.00,,---,0.11,VWS V12.07,2013-04-24 22:30:00,
2013-04-24 19:00:00,59.8,59.0,29.99,SSE,154,0.0,0.0,97,0.01,,---,0.12,VWS V12.07,2013-04-24 23:00:00,
2013-04-24 19:30:00,59.8,59.2,29.98,SSE,154,0.0,3.0,98,0.01,,---,0.12,VWS V12.07,2013-04-24 23:30:00,
2013-04-24 20:00:00,59.2,58.6,29.98,SSW,193,0.0,1.0,98,0.00,,---,0.12,VWS V12.07,2013-04-25 00:00:00,
2013-04-24 20:30:00,58.9,58.3,29.97,SE,124,0.0,0.0,98,0.01,,---,0.14,VWS V12.07,2013-04-25 00:30:00,
2013-04-24 21:00:00,57.8,57.0,30.00,NE,40,0.0,6.0,97,0.01,,---,0.14,VWS V12.07,2013-04-25 01:00:00,
2013-04-24 21:30:00,53.9,52.8,30.02,NNW,338,0.0,2.0,96,0.01,,---,0.15,VWS V12.07,2013-04-25 01:30:00,
2013-04-24 22:00:00,50.8,49.7,30.05,North,355,6.0,6.0,96,0.01,,---,0.15,VWS V12.07,2013-04-25 02:00:00,
2013-04-24 22:30:00,49.4,48.3,30.07,NNW,348,0.0,2.0,96,0.00,,---,0.15,VWS V12.07,2013-04-25 02:30:00,
2013-04-24 23:00:00,48.6,47.5,30.08,NE,37,0.0,2.0,96,0.01,,---,0.16,VWS V12.07,2013-04-25 03:00:00,
2013-04-24 23:30:00,48.6,47.8,30.07,WSW,240,1.0,3.0,97,0.01,,---,0.16,VWS V12.07,2013-04-25 03:30:00,